Portada
METAR-TAF:

METAR-TAF

Aeroports :

Hastings Municipal Airport

Hastings, Nebraska, Estats Units d'Amèrica

latitud: 40-36-02N, longitud: 098-25-33W, altitud: 595 m

Observació

L'informe es va fer fa 20 minuts, a les 06:37 UTC
Vent 4 kt del Sud-Est
Temperatura 18°C
Humitat 100%
Pressió 1019 hPa
Visibilitat: 6.4 km
Escasses núvols a una alçada de 600 ft
Cel ennuvolat a una alçada de 5500 ft
Cel cobert a una alçada de 9500 ft
tempesta a les proximitats, pluja, boirina

METAR: KHSI 200637Z AUTO 14004KT 4SM VCTS RA BR FEW006 BKN055 OVC095 18/18 A3009 RMK AO2 LTG DSNT SE-SW P0025 T01780178

Hora: 01:57 (06:57 UTC)


TAF: manca

Observacions i pronòstics meteorològics de més de 4000 aeroports (METAR i TAF).

Les estacions disponibles són els punts grocs i vermells al mapa.

Posi el ratolí al punt desitjat per veure el nom de l'estació.

Feu clic per veure les observacions i els pronòstics meteorològics.

Per canviar el mapa: feu clic els botons verds amb una creu de color negre per apropar; al botó verd amb un guió per allunyar la imatge; o en les fletxes verdes per a mapes adjacents.


METAR-TAF: